sensor_id;sensor_type;location;lat;lon;timestamp;pressure;altitude;pressure_sealevel;temperature;humidity
67545;BME280;54380;47.770;11.150;2023-11-19T00:02:26;94905.06;;;7.07;67.87
67545;BME280;54380;47.770;11.150;2023-11-19T00:04:53;94902.22;;;7.08;67.85
67545;BME280;54380;47.770;11.150;2023-11-19T00:07:22;94904.63;;;7.10;67.89
67545;BME280;54380;47.770;11.150;2023-11-19T00:09:55;94896.75;;;7.10;68.81
67545;BME280;54380;47.770;11.150;2023-11-19T00:12:22;94888.88;;;7.10;68.62
67545;BME280;54380;47.770;11.150;2023-11-19T00:14:48;94887.28;;;7.09;68.14
67545;BME280;54380;47.770;11.150;2023-11-19T00:17:15;94887.03;;;7.10;68.33
67545;BME280;54380;47.770;11.150;2023-11-19T00:19:42;94881.31;;;7.13;68.75
67545;BME280;54380;47.770;11.150;2023-11-19T00:22:09;94883.41;;;7.11;68.67
67545;BME280;54380;47.770;11.150;2023-11-19T00:24:37;94889.66;;;7.10;69.18
67545;BME280;54380;47.770;11.150;2023-11-19T00:27:03;94880.41;;;7.08;68.79
67545;BME280;54380;47.770;11.150;2023-11-19T00:29:30;94877.00;;;7.07;69.21
67545;BME280;54380;47.770;11.150;2023-11-19T00:31:57;94872.78;;;7.06;69.39
67545;BME280;54380;47.770;11.150;2023-11-19T00:34:23;94876.41;;;7.05;69.68
67545;BME280;54380;47.770;11.150;2023-11-19T00:36:50;94867.28;;;7.08;69.45
67545;BME280;54380;47.770;11.150;2023-11-19T00:39:17;94856.59;;;7.09;69.43
67545;BME280;54380;47.770;11.150;2023-11-19T00:41:45;94846.88;;;7.10;69.90
67545;BME280;54380;47.770;11.150;2023-11-19T00:44:12;94842.88;;;7.07;70.36
67545;BME280;54380;47.770;11.150;2023-11-19T00:46:39;94835.22;;;7.06;71.03
67545;BME280;54380;47.770;11.150;2023-11-19T00:49:06;94833.41;;;7.06;71.13
67545;BME280;54380;47.770;11.150;2023-11-19T00:51:32;94837.63;;;7.07;70.84
67545;BME280;54380;47.770;11.150;2023-11-19T00:53:59;94845.84;;;7.11;71.14
67545;BME280;54380;47.770;11.150;2023-11-19T00:56:27;94834.66;;;7.15;71.19
67545;BME280;54380;47.770;11.150;2023-11-19T00:58:56;94837.97;;;7.22;71.37
67545;BME280;54380;47.770;11.150;2023-11-19T01:01:22;94835.91;;;7.24;71.94
67545;BME280;54380;47.770;11.150;2023-11-19T01:03:49;94831.69;;;7.23;72.26
67545;BME280;54380;47.770;11.150;2023-11-19T01:06:26;94835.09;;;7.24;72.50
67545;BME280;54380;47.770;11.150;2023-11-19T01:08:52;94834.88;;;7.25;72.89
67545;BME280;54380;47.770;11.150;2023-11-19T01:11:19;94831.22;;;7.26;72.63
67545;BME280;54380;47.770;11.150;2023-11-19T01:13:47;94839.66;;;7.29;73.16
67545;BME280;54380;47.770;11.150;2023-11-19T01:16:15;94829.75;;;7.31;73.21
67545;BME280;54380;47.770;11.150;2023-11-19T01:18:42;94824.69;;;7.29;73.07
67545;BME280;54380;47.770;11.150;2023-11-19T01:21:09;94826.91;;;7.32;73.03
67545;BME280;54380;47.770;11.150;2023-11-19T01:23:35;94822.19;;;7.34;73.23
67545;BME280;54380;47.770;11.150;2023-11-19T01:26:03;94817.28;;;7.38;72.65
67545;BME280;54380;47.770;11.150;2023-11-19T01:28:31;94821.81;;;7.42;72.96
67545;BME280;54380;47.770;11.150;2023-11-19T01:30:58;94827.44;;;7.46;72.65
67545;BME280;54380;47.770;11.150;2023-11-19T01:33:26;94817.25;;;7.50;73.06
67545;BME280;54380;47.770;11.150;2023-11-19T01:35:54;94816.25;;;7.51;72.87
67545;BME280;54380;47.770;11.150;2023-11-19T01:38:21;94813.94;;;7.54;72.69
67545;BME280;54380;47.770;11.150;2023-11-19T01:40:47;94822.38;;;7.56;72.57
67545;BME280;54380;47.770;11.150;2023-11-19T01:45:56;94805.69;;;7.62;72.74
67545;BME280;54380;47.770;11.150;2023-11-19T01:48:23;94807.06;;;7.65;72.38
67545;BME280;54380;47.770;11.150;2023-11-19T01:50:51;94810.25;;;7.67;72.35
67545;BME280;54380;47.770;11.150;2023-11-19T01:53:28;94806.59;;;7.68;72.35
67545;BME280;54380;47.770;11.150;2023-11-19T01:55:55;94817.44;;;7.72;72.29
67545;BME280;54380;47.770;11.150;2023-11-19T01:58:22;94822.44;;;7.73;71.58
67545;BME280;54380;47.770;11.150;2023-11-19T02:00:49;94824.28;;;7.73;71.67
67545;BME280;54380;47.770;11.150;2023-11-19T02:03:16;94821.97;;;7.76;71.58
67545;BME280;54380;47.770;11.150;2023-11-19T02:05:43;94817.59;;;7.82;71.59
67545;BME280;54380;47.770;11.150;2023-11-19T02:08:11;94820.34;;;7.87;71.35
67545;BME280;54380;47.770;11.150;2023-11-19T02:10:41;94815.91;;;7.87;71.33
67545;BME280;54380;47.770;11.150;2023-11-19T02:13:07;94827.78;;;7.90;71.09
67545;BME280;54380;47.770;11.150;2023-11-19T02:15:34;94810.75;;;7.93;71.74
67545;BME280;54380;47.770;11.150;2023-11-19T02:18:20;94805.47;;;7.93;71.45
67545;BME280;54380;47.770;11.150;2023-11-19T02:20:48;94787.88;;;7.93;71.40
67545;BME280;54380;47.770;11.150;2023-11-19T02:23:18;94772.44;;;7.97;71.94
67545;BME280;54380;47.770;11.150;2023-11-19T02:25:47;94769.00;;;7.96;72.19
67545;BME280;54380;47.770;11.150;2023-11-19T02:28:17;94767.38;;;7.95;72.59
67545;BME280;54380;47.770;11.150;2023-11-19T02:30:44;94762.38;;;7.94;73.06
67545;BME280;54380;47.770;11.150;2023-11-19T02:33:11;94760.31;;;7.96;73.44
67545;BME280;54380;47.770;11.150;2023-11-19T02:35:39;94746.38;;;7.95;73.40
67545;BME280;54380;47.770;11.150;2023-11-19T02:38:07;94738.47;;;7.95;73.64
67545;BME280;54380;47.770;11.150;2023-11-19T02:40:34;94744.56;;;7.96;73.47
67545;BME280;54380;47.770;11.150;2023-11-19T02:43:00;94723.28;;;7.97;73.83
67545;BME280;54380;47.770;11.150;2023-11-19T02:45:32;94723.28;;;7.97;74.23
67545;BME280;54380;47.770;11.150;2023-11-19T02:47:59;94723.28;;;7.97;74.23
67545;BME280;54380;47.770;11.150;2023-11-19T02:50:28;94722.00;;;8.00;74.36
67545;BME280;54380;47.770;11.150;2023-11-19T02:52:55;94713.91;;;8.01;74.58
67545;BME280;54380;47.770;11.150;2023-11-19T02:55:25;94708.63;;;8.01;74.87
67545;BME280;54380;47.770;11.150;2023-11-19T02:57:54;94705.53;;;8.04;75.17
67545;BME280;54380;47.770;11.150;2023-11-19T03:00:22;94700.06;;;8.06;74.96
67545;BME280;54380;47.770;11.150;2023-11-19T03:03:01;94691.44;;;8.10;74.80
67545;BME280;54380;47.770;11.150;2023-11-19T03:05:47;94697.63;;;8.21;74.88
67545;BME280;54380;47.770;11.150;2023-11-19T03:08:14;94688.31;;;8.30;75.13
67545;BME280;54380;47.770;11.150;2023-11-19T03:10:49;94690.25;;;8.35;75.05
67545;BME280;54380;47.770;11.150;2023-11-19T03:13:15;94694.88;;;8.45;74.89
67545;BME280;54380;47.770;11.150;2023-11-19T03:15:43;94690.00;;;8.53;75.29
67545;BME280;54380;47.770;11.150;2023-11-19T03:18:11;94694.59;;;8.63;73.93
67545;BME280;54380;47.770;11.150;2023-11-19T03:20:38;94686.28;;;8.71;74.70
67545;BME280;54380;47.770;11.150;2023-11-19T03:23:04;94673.97;;;8.94;75.27
67545;BME280;54380;47.770;11.150;2023-11-19T03:25:32;94671.88;;;9.18;75.42
67545;BME280;54380;47.770;11.150;2023-11-19T03:28:03;94678.78;;;9.46;72.69
67545;BME280;54380;47.770;11.150;2023-11-19T03:30:30;94668.69;;;9.65;72.44
67545;BME280;54380;47.770;11.150;2023-11-19T03:33:01;94659.31;;;9.79;73.66
67545;BME280;54380;47.770;11.150;2023-11-19T03:35:29;94654.94;;;9.90;73.01
67545;BME280;54380;47.770;11.150;2023-11-19T03:37:56;94648.94;;;10.00;72.04
67545;BME280;54380;47.770;11.150;2023-11-19T03:40:23;94656.91;;;10.05;70.73
67545;BME280;54380;47.770;11.150;2023-11-19T03:42:52;94664.34;;;10.13;70.02
67545;BME280;54380;47.770;11.150;2023-11-19T03:45:19;94662.53;;;10.19;67.76
67545;BME280;54380;47.770;11.150;2023-11-19T03:47:45;94665.47;;;10.22;69.71
67545;BME280;54380;47.770;11.150;2023-11-19T03:50:12;94676.66;;;10.29;68.80
67545;BME280;54380;47.770;11.150;2023-11-19T03:52:40;94681.94;;;10.35;68.36
67545;BME280;54380;47.770;11.150;2023-11-19T03:55:10;94680.38;;;10.39;69.40
67545;BME280;54380;47.770;11.150;2023-11-19T03:57:37;94674.91;;;10.45;69.11
67545;BME280;54380;47.770;11.150;2023-11-19T04:00:04;94672.53;;;10.49;70.09
67545;BME280;54380;47.770;11.150;2023-11-19T04:02:40;94673.88;;;10.51;69.92
67545;BME280;54380;47.770;11.150;2023-11-19T04:05:07;94665.22;;;10.56;69.48
67545;BME280;54380;47.770;11.150;2023-11-19T04:07:34;94674.47;;;10.59;69.30
67545;BME280;54380;47.770;11.150;2023-11-19T04:10:02;94663.13;;;10.63;69.99
67545;BME280;54380;47.770;11.150;2023-11-19T04:12:29;94651.81;;;10.68;70.26
67545;BME280;54380;47.770;11.150;2023-11-19T04:14:56;94647.34;;;10.73;69.19
67545;BME280;54380;47.770;11.150;2023-11-19T04:17:25;94634.69;;;10.75;70.47
67545;BME280;54380;47.770;11.150;2023-11-19T04:19:52;94650.78;;;10.79;70.42
67545;BME280;54380;47.770;11.150;2023-11-19T04:22:18;94642.63;;;10.81;69.17
67545;BME280;54380;47.770;11.150;2023-11-19T04:24:45;94659.25;;;10.81;67.28
67545;BME280;54380;47.770;11.150;2023-11-19T04:27:13;94666.38;;;10.81;67.52
67545;BME280;54380;47.770;11.150;2023-11-19T04:29:40;94671.91;;;10.79;67.94
67545;BME280;54380;47.770;11.150;2023-11-19T04:32:06;94683.03;;;10.81;68.37
67545;BME280;54380;47.770;11.150;2023-11-19T04:34:34;94681.16;;;10.82;68.44
67545;BME280;54380;47.770;11.150;2023-11-19T04:37:00;94680.66;;;10.85;68.77
67545;BME280;54380;47.770;11.150;2023-11-19T04:39:39;94688.09;;;10.88;69.10
67545;BME280;54380;47.770;11.150;2023-11-19T04:42:05;94683.31;;;10.90;67.64
67545;BME280;54380;47.770;11.150;2023-11-19T04:44:34;94689.16;;;10.92;66.91
67545;BME280;54380;47.770;11.150;2023-11-19T04:47:01;94689.66;;;10.89;66.86
67545;BME280;54380;47.770;11.150;2023-11-19T04:49:28;94695.72;;;10.89;67.51
67545;BME280;54380;47.770;11.150;2023-11-19T04:51:54;94695.50;;;10.91;67.56
67545;BME280;54380;47.770;11.150;2023-11-19T04:54:21;94703.97;;;10.93;66.97
67545;BME280;54380;47.770;11.150;2023-11-19T04:56:47;94713.47;;;10.94;66.49
67545;BME280;54380;47.770;11.150;2023-11-19T04:59:15;94706.88;;;10.96;66.74
67545;BME280;54380;47.770;11.150;2023-11-19T05:01:46;94710.81;;;10.94;66.24
67545;BME280;54380;47.770;11.150;2023-11-19T05:04:13;94713.22;;;10.95;67.00
67545;BME280;54380;47.770;11.150;2023-11-19T05:06:40;94716.09;;;10.94;66.93
67545;BME280;54380;47.770;11.150;2023-11-19T05:09:06;94721.94;;;10.96;67.12
67545;BME280;54380;47.770;11.150;2023-11-19T05:11:38;94723.25;;;10.98;67.90
67545;BME280;54380;47.770;11.150;2023-11-19T05:14:17;94727.47;;;10.99;68.29
67545;BME280;54380;47.770;11.150;2023-11-19T05:16:46;94731.47;;;11.02;67.38
67545;BME280;54380;47.770;11.150;2023-11-19T05:19:13;94730.41;;;11.03;65.90
67545;BME280;54380;47.770;11.150;2023-11-19T05:21:41;94735.94;;;11.02;66.88
67545;BME280;54380;47.770;11.150;2023-11-19T05:24:08;94736.75;;;11.02;66.17
67545;BME280;54380;47.770;11.150;2023-11-19T05:26:34;94734.66;;;11.04;65.63
67545;BME280;54380;47.770;11.150;2023-11-19T05:29:01;94743.88;;;11.02;65.90
67545;BME280;54380;47.770;11.150;2023-11-19T05:31:27;94734.88;;;11.03;66.33
67545;BME280;54380;47.770;11.150;2023-11-19T05:33:55;94745.72;;;11.01;66.82
67545;BME280;54380;47.770;11.150;2023-11-19T05:36:22;94738.84;;;11.00;66.56
67545;BME280;54380;47.770;11.150;2023-11-19T05:38:49;94740.97;;;10.98;67.49
67545;BME280;54380;47.770;11.150;2023-11-19T05:41:15;94726.44;;;11.01;67.08
67545;BME280;54380;47.770;11.150;2023-11-19T05:43:42;94743.34;;;11.05;66.62
67545;BME280;54380;47.770;11.150;2023-11-19T05:46:08;94721.44;;;11.04;65.27
67545;BME280;54380;47.770;11.150;2023-11-19T05:48:38;94745.22;;;11.04;66.05
67545;BME280;54380;47.770;11.150;2023-11-19T05:51:06;94742.28;;;11.01;66.26
67545;BME280;54380;47.770;11.150;2023-11-19T05:53:33;94731.72;;;11.01;67.30
67545;BME280;54380;47.770;11.150;2023-11-19T05:56:00;94744.13;;;11.00;66.67
67545;BME280;54380;47.770;11.150;2023-11-19T05:58:30;94745.19;;;10.99;65.92
67545;BME280;54380;47.770;11.150;2023-11-19T06:00:56;94753.34;;;10.97;65.90
67545;BME280;54380;47.770;11.150;2023-11-19T06:03:23;94758.63;;;10.97;67.20
67545;BME280;54380;47.770;11.150;2023-11-19T06:05:50;94751.53;;;10.98;66.78
67545;BME280;54380;47.770;11.150;2023-11-19T06:08:18;94754.44;;;11.02;66.02
67545;BME280;54380;47.770;11.150;2023-11-19T06:10:47;94752.03;;;11.00;66.85
67545;BME280;54380;47.770;11.150;2023-11-19T06:13:13;94765.78;;;11.02;66.65
67545;BME280;54380;47.770;11.150;2023-11-19T06:15:42;94732.25;;;11.03;68.42
67545;BME280;54380;47.770;11.150;2023-11-19T06:18:08;94747.06;;;11.04;66.01
67545;BME280;54380;47.770;11.150;2023-11-19T06:20:36;94775.28;;;11.03;66.87
67545;BME280;54380;47.770;11.150;2023-11-19T06:23:05;94776.13;;;11.04;66.00
67545;BME280;54380;47.770;11.150;2023-11-19T06:25:34;94764.22;;;11.01;66.31
67545;BME280;54380;47.770;11.150;2023-11-19T06:28:02;94749.16;;;11.02;66.36
67545;BME280;54380;47.770;11.150;2023-11-19T06:30:28;94738.63;;;11.07;66.45
67545;BME280;54380;47.770;11.150;2023-11-19T06:32:57;94751.28;;;11.05;66.29
67545;BME280;54380;47.770;11.150;2023-11-19T06:35:23;94758.97;;;11.06;66.71
67545;BME280;54380;47.770;11.150;2023-11-19T06:37:50;94755.50;;;11.06;66.17
67545;BME280;54380;47.770;11.150;2023-11-19T06:40:16;94764.25;;;11.06;67.37
67545;BME280;54380;47.770;11.150;2023-11-19T06:42:45;94759.22;;;11.10;66.82
67545;BME280;54380;47.770;11.150;2023-11-19T06:45:11;94767.94;;;11.10;66.70
67545;BME280;54380;47.770;11.150;2023-11-19T06:47:38;94764.28;;;11.11;66.24
67545;BME280;54380;47.770;11.150;2023-11-19T06:50:05;94770.06;;;11.13;66.14
67545;BME280;54380;47.770;11.150;2023-11-19T06:52:33;94746.84;;;11.15;66.64
67545;BME280;54380;47.770;11.150;2023-11-19T06:55:00;94766.94;;;11.16;65.76
67545;BME280;54380;47.770;11.150;2023-11-19T06:57:30;94763.75;;;11.14;64.72
67545;BME280;54380;47.770;11.150;2023-11-19T06:59:59;94773.00;;;11.12;66.09
67545;BME280;54380;47.770;11.150;2023-11-19T07:02:26;94770.34;;;11.12;66.23
67545;BME280;54380;47.770;11.150;2023-11-19T07:04:53;94778.81;;;11.14;67.06
67545;BME280;54380;47.770;11.150;2023-11-19T07:07:21;94783.59;;;11.17;66.12
67545;BME280;54380;47.770;11.150;2023-11-19T07:09:47;94785.44;;;11.21;66.43
67545;BME280;54380;47.770;11.150;2023-11-19T07:12:14;94775.94;;;11.20;65.86
67545;BME280;54380;47.770;11.150;2023-11-19T07:14:42;94773.56;;;11.19;65.49
67545;BME280;54380;47.770;11.150;2023-11-19T07:17:10;94787.56;;;11.19;65.76
67545;BME280;54380;47.770;11.150;2023-11-19T07:19:36;94795.50;;;11.19;65.97
67545;BME280;54380;47.770;11.150;2023-11-19T07:22:04;94799.69;;;11.15;66.11
67545;BME280;54380;47.770;11.150;2023-11-19T07:24:32;94808.44;;;11.21;65.14
67545;BME280;54380;47.770;11.150;2023-11-19T07:26:59;94806.06;;;11.19;66.37
67545;BME280;54380;47.770;11.150;2023-11-19T07:29:26;94824.81;;;11.23;65.07
67545;BME280;54380;47.770;11.150;2023-11-19T07:31:55;94812.13;;;11.20;65.59
67545;BME280;54380;47.770;11.150;2023-11-19T07:34:24;94818.72;;;11.17;66.29
67545;BME280;54380;47.770;11.150;2023-11-19T07:36:51;94823.50;;;11.20;66.00
67545;BME280;54380;47.770;11.150;2023-11-19T07:39:18;94815.56;;;11.20;67.12
67545;BME280;54380;47.770;11.150;2023-11-19T07:41:45;94815.59;;;11.26;66.25
67545;BME280;54380;47.770;11.150;2023-11-19T07:44:11;94815.88;;;11.29;66.70
67545;BME280;54380;47.770;11.150;2023-11-19T07:46:38;94824.88;;;11.33;66.32
67545;BME280;54380;47.770;11.150;2023-11-19T07:49:04;94819.59;;;11.33;66.11
67545;BME280;54380;47.770;11.150;2023-11-19T07:51:32;94815.41;;;11.37;66.06
67545;BME280;54380;47.770;11.150;2023-11-19T07:53:59;94809.84;;;11.39;67.01
67545;BME280;54380;47.770;11.150;2023-11-19T07:56:26;94821.22;;;11.39;67.98
67545;BME280;54380;47.770;11.150;2023-11-19T07:58:52;94811.97;;;11.42;67.61
67545;BME280;54380;47.770;11.150;2023-11-19T08:01:19;94808.81;;;11.45;67.09
67545;BME280;54380;47.770;11.150;2023-11-19T08:03:45;94804.06;;;11.47;66.21
67545;BME280;54380;47.770;11.150;2023-11-19T08:06:15;94796.44;;;11.51;65.99
67545;BME280;54380;47.770;11.150;2023-11-19T08:08:43;94797.78;;;11.53;65.77
67545;BME280;54380;47.770;11.150;2023-11-19T08:11:10;94800.69;;;11.57;65.81
67545;BME280;54380;47.770;11.150;2023-11-19T08:13:36;94810.75;;;11.60;65.52
67545;BME280;54380;47.770;11.150;2023-11-19T08:16:03;94792.00;;;11.61;65.70
67545;BME280;54380;47.770;11.150;2023-11-19T08:18:30;94801.25;;;11.64;64.43
67545;BME280;54380;47.770;11.150;2023-11-19T08:20:57;94807.59;;;11.63;64.69
67545;BME280;54380;47.770;11.150;2023-11-19T08:23:25;94803.09;;;11.63;65.48
67545;BME280;54380;47.770;11.150;2023-11-19T08:25:53;94812.88;;;11.63;65.23
67545;BME280;54380;47.770;11.150;2023-11-19T08:28:20;94811.03;;;11.69;64.82
67545;BME280;54380;47.770;11.150;2023-11-19T08:30:47;94824.00;;;11.70;64.39
67545;BME280;54380;47.770;11.150;2023-11-19T08:33:13;94823.75;;;11.72;65.49
67545;BME280;54380;47.770;11.150;2023-11-19T08:35:41;94820.84;;;11.73;66.56
67545;BME280;54380;47.770;11.150;2023-11-19T08:38:08;94829.88;;;11.77;65.31
67545;BME280;54380;47.770;11.150;2023-11-19T08:40:35;94839.91;;;11.80;64.25
67545;BME280;54380;47.770;11.150;2023-11-19T08:43:03;94840.16;;;11.79;64.51
67545;BME280;54380;47.770;11.150;2023-11-19T08:45:29;94843.88;;;11.78;64.51
67545;BME280;54380;47.770;11.150;2023-11-19T08:47:56;94841.50;;;11.81;65.42
67545;BME280;54380;47.770;11.150;2023-11-19T08:50:23;94836.50;;;11.85;65.29
67545;BME280;54380;47.770;11.150;2023-11-19T08:52:50;94852.44;;;11.90;64.83
67545;BME280;54380;47.770;11.150;2023-11-19T08:55:17;94841.56;;;11.92;65.53
67545;BME280;54380;47.770;11.150;2023-11-19T08:57:43;94850.06;;;11.99;64.80
67545;BME280;54380;47.770;11.150;2023-11-19T09:00:12;94848.22;;;11.99;65.09
67545;BME280;54380;47.770;11.150;2023-11-19T09:02:40;94849.78;;;12.00;64.57
67545;BME280;54380;47.770;11.150;2023-11-19T09:05:07;94845.84;;;12.03;65.68
67545;BME280;54380;47.770;11.150;2023-11-19T09:07:34;94840.06;;;12.06;65.92
67545;BME280;54380;47.770;11.150;2023-11-19T09:10:01;94841.91;;;12.16;65.48
67545;BME280;54380;47.770;11.150;2023-11-19T09:12:28;94849.06;;;12.20;64.77
67545;BME280;54380;47.770;11.150;2023-11-19T09:14:54;94843.78;;;12.20;65.56
67545;BME280;54380;47.770;11.150;2023-11-19T09:17:22;94849.34;;;12.24;65.67
67545;BME280;54380;47.770;11.150;2023-11-19T09:19:49;94844.34;;;12.27;64.47
67545;BME280;54380;47.770;11.150;2023-11-19T09:22:15;94856.50;;;12.28;65.17
67545;BME280;54380;47.770;11.150;2023-11-19T09:24:43;94856.75;;;12.32;65.76
67545;BME280;54380;47.770;11.150;2023-11-19T09:27:11;94845.41;;;12.37;66.00
67545;BME280;54380;47.770;11.150;2023-11-19T09:29:38;94847.03;;;12.43;65.41
67545;BME280;54380;47.770;11.150;2023-11-19T09:32:05;94862.63;;;12.49;64.28
67545;BME280;54380;47.770;11.150;2023-11-19T09:34:33;94850.97;;;12.50;64.99
67545;BME280;54380;47.770;11.150;2023-11-19T09:37:00;94851.00;;;12.56;65.57
67545;BME280;54380;47.770;11.150;2023-11-19T09:39:27;94855.78;;;12.59;64.44
67545;BME280;54380;47.770;11.150;2023-11-19T09:41:54;94850.50;;;12.64;65.24
67545;BME280;54380;47.770;11.150;2023-11-19T09:44:20;94846.00;;;12.69;64.82
67545;BME280;54380;47.770;11.150;2023-11-19T09:46:47;94846.78;;;12.75;64.87
67545;BME280;54380;47.770;11.150;2023-11-19T09:49:16;94840.72;;;12.80;64.25
67545;BME280;54380;47.770;11.150;2023-11-19T09:52:03;94850.47;;;12.79;63.92
67545;BME280;54380;47.770;11.150;2023-11-19T09:54:30;94850.22;;;12.81;62.86
67545;BME280;54380;47.770;11.150;2023-11-19T09:56:58;94846.25;;;12.78;64.08
67545;BME280;54380;47.770;11.150;2023-11-19T09:59:30;94841.75;;;12.73;64.79
67545;BME280;54380;47.770;11.150;2023-11-19T10:01:56;94837.53;;;12.78;65.74
67545;BME280;54380;47.770;11.150;2023-11-19T10:04:23;94835.66;;;12.78;64.85
67545;BME280;54380;47.770;11.150;2023-11-19T10:06:51;94832.22;;;12.78;63.77
67545;BME280;54380;47.770;11.150;2023-11-19T10:09:19;94835.13;;;12.81;63.33
67545;BME280;54380;47.770;11.150;2023-11-19T10:11:45;94820.03;;;12.82;63.59
67545;BME280;54380;47.770;11.150;2023-11-19T10:14:12;94825.06;;;12.88;63.78
67545;BME280;54380;47.770;11.150;2023-11-19T10:16:40;94818.97;;;12.93;64.03
67545;BME280;54380;47.770;11.150;2023-11-19T10:19:07;94818.16;;;12.98;64.14
67545;BME280;54380;47.770;11.150;2023-11-19T10:21:33;94823.75;;;13.01;63.34
67545;BME280;54380;47.770;11.150;2023-11-19T10:24:00;94828.25;;;13.01;64.34
67545;BME280;54380;47.770;11.150;2023-11-19T10:26:28;94821.34;;;13.00;64.23
67545;BME280;54380;47.770;11.150;2023-11-19T10:28:56;94827.19;;;13.07;63.30
67545;BME280;54380;47.770;11.150;2023-11-19T10:31:23;94820.28;;;13.06;63.48
67545;BME280;54380;47.770;11.150;2023-11-19T10:33:52;94820.00;;;13.07;63.67
67545;BME280;54380;47.770;11.150;2023-11-19T10:36:19;94819.47;;;13.10;63.25
67545;BME280;54380;47.770;11.150;2023-11-19T10:38:52;94818.44;;;13.11;63.34
67545;BME280;54380;47.770;11.150;2023-11-19T10:41:26;94820.81;;;13.13;62.94
67545;BME280;54380;47.770;11.150;2023-11-19T10:43:54;94824.53;;;13.17;63.09
67545;BME280;54380;47.770;11.150;2023-11-19T10:46:21;94821.03;;;13.22;63.58
67545;BME280;54380;47.770;11.150;2023-11-19T10:48:49;94832.19;;;13.29;62.44
67545;BME280;54380;47.770;11.150;2023-11-19T10:51:18;94816.03;;;13.30;63.69
67545;BME280;54380;47.770;11.150;2023-11-19T10:53:47;94820.28;;;13.31;62.46
67545;BME280;54380;47.770;11.150;2023-11-19T10:56:15;94823.47;;;13.28;62.13
67545;BME280;54380;47.770;11.150;2023-11-19T10:58:44;94817.63;;;13.26;62.07
67545;BME280;54380;47.770;11.150;2023-11-19T11:01:13;94806.78;;;13.28;62.27
67545;BME280;54380;47.770;11.150;2023-11-19T11:03:42;94804.13;;;13.28;62.12
67545;BME280;54380;47.770;11.150;2023-11-19T11:06:13;94809.13;;;13.34;63.29
67545;BME280;54380;47.770;11.150;2023-11-19T11:08:40;94793.47;;;13.43;63.00
67545;BME280;54380;47.770;11.150;2023-11-19T11:11:07;94801.13;;;13.55;62.84
67545;BME280;54380;47.770;11.150;2023-11-19T11:13:34;94804.25;;;13.77;62.51
67545;BME280;54380;47.770;11.150;2023-11-19T11:16:03;94791.66;;;14.03;62.51
67545;BME280;54380;47.770;11.150;2023-11-19T11:18:32;94777.94;;;14.31;61.82
67545;BME280;54380;47.770;11.150;2023-11-19T11:21:00;94791.78;;;14.67;61.76
67545;BME280;54380;47.770;11.150;2023-11-19T11:23:35;94771.19;;;15.12;61.52
67545;BME280;54380;47.770;11.150;2023-11-19T11:26:09;94782.06;;;15.40;58.93
67545;BME280;54380;47.770;11.150;2023-11-19T11:28:43;94782.75;;;15.50;59.45
67545;BME280;54380;47.770;11.150;2023-11-19T11:31:15;94781.28;;;15.63;57.84
67545;BME280;54380;47.770;11.150;2023-11-19T11:36:36;94763.94;;;15.71;58.09
67545;BME280;54380;47.770;11.150;2023-11-19T11:39:11;94758.53;;;15.76;56.67
67545;BME280;54380;47.770;11.150;2023-11-19T11:41:39;94746.47;;;15.59;57.71
67545;BME280;54380;47.770;11.150;2023-11-19T11:44:06;94743.97;;;15.68;57.12
67545;BME280;54380;47.770;11.150;2023-11-19T11:49:24;94734.06;;;16.17;56.34
67545;BME280;54380;47.770;11.150;2023-11-19T11:51:59;94741.50;;;16.34;55.93
67545;BME280;54380;47.770;11.150;2023-11-19T11:54:26;94737.41;;;16.41;54.74
67545;BME280;54380;47.770;11.150;2023-11-19T11:57:03;94741.59;;;16.29;54.82
67545;BME280;54380;47.770;11.150;2023-11-19T11:59:36;94724.91;;;16.04;55.20
67545;BME280;54380;47.770;11.150;2023-11-19T12:02:03;94729.00;;;15.96;54.93
67545;BME280;54380;47.770;11.150;2023-11-19T12:04:30;94730.63;;;15.73;55.43
67545;BME280;54380;47.770;11.150;2023-11-19T12:07:04;94724.69;;;15.57;56.91
67545;BME280;54380;47.770;11.150;2023-11-19T12:09:31;94730.59;;;15.54;56.16
67545;BME280;54380;47.770;11.150;2023-11-19T12:12:07;94736.34;;;15.86;56.08
67545;BME280;54380;47.770;11.150;2023-11-19T12:19:56;94729.34;;;15.90;56.60
67545;BME280;54380;47.770;11.150;2023-11-19T12:22:25;94733.94;;;15.84;56.86
67545;BME280;54380;47.770;11.150;2023-11-19T12:24:52;94733.69;;;16.05;56.39
67545;BME280;54380;47.770;11.150;2023-11-19T12:27:19;94732.91;;;16.04;55.82
67545;BME280;54380;47.770;11.150;2023-11-19T12:29:48;94734.34;;;15.96;55.68
67545;BME280;54380;47.770;11.150;2023-11-19T12:32:15;94729.72;;;15.83;55.96
67545;BME280;54380;47.770;11.150;2023-11-19T12:34:41;94730.31;;;15.80;56.63
67545;BME280;54380;47.770;11.150;2023-11-19T12:37:08;94724.41;;;15.83;56.64
67545;BME280;54380;47.770;11.150;2023-11-19T12:39:38;94716.09;;;15.85;56.12
67545;BME280;54380;47.770;11.150;2023-11-19T12:42:04;94712.59;;;15.70;54.96
67545;BME280;54380;47.770;11.150;2023-11-19T12:44:31;94711.34;;;15.39;55.85
67545;BME280;54380;47.770;11.150;2023-11-19T12:47:00;94716.09;;;15.18;56.35
67545;BME280;54380;47.770;11.150;2023-11-19T12:49:30;94723.16;;;15.03;57.36
67545;BME280;54380;47.770;11.150;2023-11-19T12:51:56;94711.53;;;14.99;57.63
67545;BME280;54380;47.770;11.150;2023-11-19T12:54:31;94700.41;;;14.92;57.60
67545;BME280;54380;47.770;11.150;2023-11-19T12:56:59;94702.38;;;14.81;58.65
67545;BME280;54380;47.770;11.150;2023-11-19T12:59:26;94707.00;;;14.70;58.75
67545;BME280;54380;47.770;11.150;2023-11-19T13:01:54;94711.16;;;14.53;59.88
67545;BME280;54380;47.770;11.150;2023-11-19T13:04:20;94703.22;;;14.42;60.58
67545;BME280;54380;47.770;11.150;2023-11-19T13:06:47;94711.53;;;14.36;60.97
67545;BME280;54380;47.770;11.150;2023-11-19T13:09:30;94715.53;;;14.33;61.18
67545;BME280;54380;47.770;11.150;2023-11-19T13:11:59;94706.78;;;14.33;62.22